sensor_id;sensor_type;location;lat;lon;timestamp;P1;durP1;ratioP1;P2;durP2;ratioP2
41709;SDS011;59402;48.396;-4.472;2022-07-23T00:00:30;5.18;;;2.10;;
41709;SDS011;59402;48.396;-4.472;2022-07-23T00:02:56;8.38;;;2.28;;
41709;SDS011;59402;48.396;-4.472;2022-07-23T00:05:21;6.22;;;2.30;;
41709;SDS011;59402;48.396;-4.472;2022-07-23T00:07:47;6.97;;;2.50;;
41709;SDS011;59402;48.396;-4.472;2022-07-23T00:10:12;6.00;;;2.53;;
41709;SDS011;59402;48.396;-4.472;2022-07-23T00:12:38;10.15;;;3.25;;
41709;SDS011;59402;48.396;-4.472;2022-07-23T00:15:05;11.57;;;3.03;;
41709;SDS011;59402;48.396;-4.472;2022-07-23T00:17:33;6.72;;;2.80;;
41709;SDS011;59402;48.396;-4.472;2022-07-23T00:20:00;9.18;;;2.88;;
41709;SDS011;59402;48.396;-4.472;2022-07-23T00:22:26;8.77;;;3.25;;
41709;SDS011;59402;48.396;-4.472;2022-07-23T00:24:52;9.02;;;3.22;;
41709;SDS011;59402;48.396;-4.472;2022-07-23T00:27:18;6.65;;;3.00;;
41709;SDS011;59402;48.396;-4.472;2022-07-23T00:29:43;6.90;;;3.35;;
41709;SDS011;59402;48.396;-4.472;2022-07-23T00:32:09;9.25;;;3.30;;
41709;SDS011;59402;48.396;-4.472;2022-07-23T00:34:35;6.38;;;2.90;;
41709;SDS011;59402;48.396;-4.472;2022-07-23T00:37:00;7.95;;;3.35;;
41709;SDS011;59402;48.396;-4.472;2022-07-23T00:39:26;5.80;;;3.13;;
41709;SDS011;59402;48.396;-4.472;2022-07-23T00:41:52;7.25;;;3.58;;
41709;SDS011;59402;48.396;-4.472;2022-07-23T00:44:24;7.68;;;3.33;;
41709;SDS011;59402;48.396;-4.472;2022-07-23T00:46:53;10.07;;;3.00;;
41709;SDS011;59402;48.396;-4.472;2022-07-23T00:49:23;7.32;;;3.15;;
41709;SDS011;59402;48.396;-4.472;2022-07-23T00:51:51;5.97;;;3.05;;
41709;SDS011;59402;48.396;-4.472;2022-07-23T00:54:17;11.65;;;3.13;;
41709;SDS011;59402;48.396;-4.472;2022-07-23T00:56:44;7.18;;;3.03;;
41709;SDS011;59402;48.396;-4.472;2022-07-23T00:59:11;8.57;;;2.95;;
41709;SDS011;59402;48.396;-4.472;2022-07-23T01:01:36;8.07;;;3.13;;
41709;SDS011;59402;48.396;-4.472;2022-07-23T01:04:02;7.40;;;3.10;;
41709;SDS011;59402;48.396;-4.472;2022-07-23T01:06:27;7.53;;;3.20;;
41709;SDS011;59402;48.396;-4.472;2022-07-23T01:08:53;6.45;;;3.50;;
41709;SDS011;59402;48.396;-4.472;2022-07-23T01:11:20;10.53;;;4.27;;
41709;SDS011;59402;48.396;-4.472;2022-07-23T01:13:46;8.25;;;3.53;;
41709;SDS011;59402;48.396;-4.472;2022-07-23T01:16:12;8.13;;;3.50;;
41709;SDS011;59402;48.396;-4.472;2022-07-23T01:18:38;5.80;;;3.45;;
41709;SDS011;59402;48.396;-4.472;2022-07-23T01:21:03;9.75;;;3.28;;
41709;SDS011;59402;48.396;-4.472;2022-07-23T01:23:29;8.15;;;3.38;;
41709;SDS011;59402;48.396;-4.472;2022-07-23T01:25:57;5.97;;;3.00;;
41709;SDS011;59402;48.396;-4.472;2022-07-23T01:28:24;6.15;;;2.33;;
41709;SDS011;59402;48.396;-4.472;2022-07-23T01:30:50;6.38;;;2.33;;
41709;SDS011;59402;48.396;-4.472;2022-07-23T01:33:15;5.25;;;2.40;;
41709;SDS011;59402;48.396;-4.472;2022-07-23T01:35:41;6.43;;;2.50;;
41709;SDS011;59402;48.396;-4.472;2022-07-23T01:38:08;7.38;;;2.50;;
41709;SDS011;59402;48.396;-4.472;2022-07-23T01:40:34;4.95;;;1.85;;
41709;SDS011;59402;48.396;-4.472;2022-07-23T01:43:00;4.43;;;1.70;;
41709;SDS011;59402;48.396;-4.472;2022-07-23T01:45:25;6.22;;;1.77;;
41709;SDS011;59402;48.396;-4.472;2022-07-23T01:47:52;5.32;;;1.73;;
41709;SDS011;59402;48.396;-4.472;2022-07-23T01:50:17;4.45;;;1.45;;
41709;SDS011;59402;48.396;-4.472;2022-07-23T01:52:52;3.22;;;1.70;;
41709;SDS011;59402;48.396;-4.472;2022-07-23T01:55:17;6.47;;;2.00;;
41709;SDS011;59402;48.396;-4.472;2022-07-23T01:57:43;4.85;;;1.85;;
41709;SDS011;59402;48.396;-4.472;2022-07-23T02:00:10;8.30;;;1.90;;
41709;SDS011;59402;48.396;-4.472;2022-07-23T02:02:41;5.00;;;1.63;;
41709;SDS011;59402;48.396;-4.472;2022-07-23T02:05:07;4.40;;;1.33;;
41709;SDS011;59402;48.396;-4.472;2022-07-23T02:07:33;4.63;;;1.63;;
41709;SDS011;59402;48.396;-4.472;2022-07-23T02:09:59;3.08;;;1.30;;
41709;SDS011;59402;48.396;-4.472;2022-07-23T02:12:24;5.68;;;1.50;;
41709;SDS011;59402;48.396;-4.472;2022-07-23T02:14:50;4.20;;;1.25;;
41709;SDS011;59402;48.396;-4.472;2022-07-23T02:17:16;2.90;;;1.20;;
41709;SDS011;59402;48.396;-4.472;2022-07-23T02:19:41;5.20;;;1.45;;
41709;SDS011;59402;48.396;-4.472;2022-07-23T02:22:07;3.58;;;1.20;;
41709;SDS011;59402;48.396;-4.472;2022-07-23T02:24:32;7.32;;;1.67;;
41709;SDS011;59402;48.396;-4.472;2022-07-23T02:26:58;2.92;;;1.20;;
41709;SDS011;59402;48.396;-4.472;2022-07-23T02:29:23;3.40;;;1.10;;
41709;SDS011;59402;48.396;-4.472;2022-07-23T02:31:48;3.70;;;1.30;;
41709;SDS011;59402;48.396;-4.472;2022-07-23T02:34:14;3.92;;;1.30;;
41709;SDS011;59402;48.396;-4.472;2022-07-23T02:36:39;3.65;;;1.30;;
41709;SDS011;59402;48.396;-4.472;2022-07-23T02:39:05;3.88;;;1.30;;
41709;SDS011;59402;48.396;-4.472;2022-07-23T02:41:32;3.35;;;1.00;;
41709;SDS011;59402;48.396;-4.472;2022-07-23T02:43:58;2.38;;;1.20;;
41709;SDS011;59402;48.396;-4.472;2022-07-23T02:46:23;2.47;;;0.98;;
41709;SDS011;59402;48.396;-4.472;2022-07-23T02:48:49;4.60;;;1.20;;
41709;SDS011;59402;48.396;-4.472;2022-07-23T02:51:15;4.38;;;1.27;;
41709;SDS011;59402;48.396;-4.472;2022-07-23T02:53:46;4.68;;;1.13;;
41709;SDS011;59402;48.396;-4.472;2022-07-23T02:56:11;3.58;;;1.17;;
41709;SDS011;59402;48.396;-4.472;2022-07-23T02:58:37;3.55;;;1.25;;
41709;SDS011;59402;48.396;-4.472;2022-07-23T03:01:02;3.53;;;1.20;;
41709;SDS011;59402;48.396;-4.472;2022-07-23T03:03:28;2.40;;;1.10;;
41709;SDS011;59402;48.396;-4.472;2022-07-23T03:05:54;3.20;;;1.10;;
41709;SDS011;59402;48.396;-4.472;2022-07-23T03:08:19;4.18;;;1.35;;
41709;SDS011;59402;48.396;-4.472;2022-07-23T03:10:49;2.97;;;1.33;;
41709;SDS011;59402;48.396;-4.472;2022-07-23T03:13:15;3.38;;;1.30;;
41709;SDS011;59402;48.396;-4.472;2022-07-23T03:15:40;1.80;;;1.00;;
41709;SDS011;59402;48.396;-4.472;2022-07-23T03:18:06;2.65;;;1.05;;
41709;SDS011;59402;48.396;-4.472;2022-07-23T03:20:31;3.20;;;1.10;;
41709;SDS011;59402;48.396;-4.472;2022-07-23T03:22:57;3.88;;;1.00;;
41709;SDS011;59402;48.396;-4.472;2022-07-23T03:25:22;3.72;;;1.60;;
41709;SDS011;59402;48.396;-4.472;2022-07-23T03:27:48;2.88;;;1.30;;
41709;SDS011;59402;48.396;-4.472;2022-07-23T03:30:13;5.90;;;1.38;;
41709;SDS011;59402;48.396;-4.472;2022-07-23T03:32:39;3.10;;;1.27;;
41709;SDS011;59402;48.396;-4.472;2022-07-23T03:35:05;3.75;;;1.40;;
41709;SDS011;59402;48.396;-4.472;2022-07-23T03:37:31;3.30;;;1.25;;
41709;SDS011;59402;48.396;-4.472;2022-07-23T03:39:57;3.63;;;1.50;;
41709;SDS011;59402;48.396;-4.472;2022-07-23T03:42:23;3.45;;;1.20;;
41709;SDS011;59402;48.396;-4.472;2022-07-23T03:44:48;5.25;;;1.13;;
41709;SDS011;59402;48.396;-4.472;2022-07-23T03:47:14;3.30;;;1.23;;
41709;SDS011;59402;48.396;-4.472;2022-07-23T03:49:42;6.03;;;1.30;;
41709;SDS011;59402;48.396;-4.472;2022-07-23T03:52:08;4.20;;;1.20;;
41709;SDS011;59402;48.396;-4.472;2022-07-23T03:54:34;3.22;;;1.35;;
41709;SDS011;59402;48.396;-4.472;2022-07-23T03:57:00;3.77;;;1.40;;
41709;SDS011;59402;48.396;-4.472;2022-07-23T03:59:27;3.85;;;1.30;;
41709;SDS011;59402;48.396;-4.472;2022-07-23T04:01:53;3.45;;;1.70;;
41709;SDS011;59402;48.396;-4.472;2022-07-23T04:04:18;3.95;;;1.30;;
41709;SDS011;59402;48.396;-4.472;2022-07-23T04:06:44;3.88;;;1.33;;
41709;SDS011;59402;48.396;-4.472;2022-07-23T04:09:09;6.10;;;1.50;;
41709;SDS011;59402;48.396;-4.472;2022-07-23T04:11:35;3.28;;;1.30;;
41709;SDS011;59402;48.396;-4.472;2022-07-23T04:14:01;3.67;;;1.50;;
41709;SDS011;59402;48.396;-4.472;2022-07-23T04:16:26;2.58;;;1.20;;
41709;SDS011;59402;48.396;-4.472;2022-07-23T04:18:53;3.10;;;1.40;;
41709;SDS011;59402;48.396;-4.472;2022-07-23T04:21:20;2.20;;;1.10;;
41709;SDS011;59402;48.396;-4.472;2022-07-23T04:23:47;3.08;;;1.35;;
41709;SDS011;59402;48.396;-4.472;2022-07-23T04:26:13;5.25;;;1.40;;
41709;SDS011;59402;48.396;-4.472;2022-07-23T04:28:39;3.72;;;1.33;;
41709;SDS011;59402;48.396;-4.472;2022-07-23T04:31:04;4.10;;;1.27;;
41709;SDS011;59402;48.396;-4.472;2022-07-23T04:33:31;3.53;;;1.50;;
41709;SDS011;59402;48.396;-4.472;2022-07-23T04:35:58;4.53;;;1.52;;
41709;SDS011;59402;48.396;-4.472;2022-07-23T04:38:24;3.80;;;1.40;;
41709;SDS011;59402;48.396;-4.472;2022-07-23T04:40:53;6.15;;;1.40;;
41709;SDS011;59402;48.396;-4.472;2022-07-23T04:43:18;2.92;;;1.40;;
41709;SDS011;59402;48.396;-4.472;2022-07-23T04:45:47;5.63;;;1.60;;
41709;SDS011;59402;48.396;-4.472;2022-07-23T04:48:13;3.63;;;1.40;;
41709;SDS011;59402;48.396;-4.472;2022-07-23T04:50:38;4.13;;;1.50;;
41709;SDS011;59402;48.396;-4.472;2022-07-23T04:53:04;3.78;;;1.50;;
41709;SDS011;59402;48.396;-4.472;2022-07-23T04:55:30;5.05;;;1.60;;
41709;SDS011;59402;48.396;-4.472;2022-07-23T04:57:56;4.63;;;1.60;;
41709;SDS011;59402;48.396;-4.472;2022-07-23T05:00:22;3.38;;;1.38;;
41709;SDS011;59402;48.396;-4.472;2022-07-23T05:02:47;2.70;;;1.38;;
41709;SDS011;59402;48.396;-4.472;2022-07-23T05:05:13;5.28;;;1.55;;
41709;SDS011;59402;48.396;-4.472;2022-07-23T05:07:40;5.03;;;1.63;;
41709;SDS011;59402;48.396;-4.472;2022-07-23T05:10:06;3.47;;;1.30;;
41709;SDS011;59402;48.396;-4.472;2022-07-23T05:12:32;3.97;;;1.63;;
41709;SDS011;59402;48.396;-4.472;2022-07-23T05:14:58;5.38;;;1.90;;
41709;SDS011;59402;48.396;-4.472;2022-07-23T05:17:24;4.40;;;1.73;;
41709;SDS011;59402;48.396;-4.472;2022-07-23T05:19:50;3.67;;;1.40;;
41709;SDS011;59402;48.396;-4.472;2022-07-23T05:22:16;3.58;;;1.50;;
41709;SDS011;59402;48.396;-4.472;2022-07-23T05:24:42;2.72;;;1.50;;
41709;SDS011;59402;48.396;-4.472;2022-07-23T05:27:08;3.90;;;1.60;;
41709;SDS011;59402;48.396;-4.472;2022-07-23T05:29:34;4.53;;;1.83;;
41709;SDS011;59402;48.396;-4.472;2022-07-23T05:31:59;6.60;;;1.92;;
41709;SDS011;59402;48.396;-4.472;2022-07-23T05:34:26;4.32;;;1.63;;
41709;SDS011;59402;48.396;-4.472;2022-07-23T05:36:51;4.97;;;1.80;;
41709;SDS011;59402;48.396;-4.472;2022-07-23T05:39:17;4.18;;;1.63;;
41709;SDS011;59402;48.396;-4.472;2022-07-23T05:41:43;3.03;;;1.30;;
41709;SDS011;59402;48.396;-4.472;2022-07-23T05:44:08;6.85;;;1.95;;
41709;SDS011;59402;48.396;-4.472;2022-07-23T05:46:37;3.97;;;2.15;;
41709;SDS011;59402;48.396;-4.472;2022-07-23T05:49:06;5.75;;;1.90;;
41709;SDS011;59402;48.396;-4.472;2022-07-23T05:51:50;5.95;;;1.90;;
41709;SDS011;59402;48.396;-4.472;2022-07-23T05:54:21;6.13;;;2.70;;
41709;SDS011;59402;48.396;-4.472;2022-07-23T05:56:47;3.83;;;1.55;;
41709;SDS011;59402;48.396;-4.472;2022-07-23T05:59:12;4.15;;;1.73;;
41709;SDS011;59402;48.396;-4.472;2022-07-23T06:01:39;5.95;;;1.90;;
41709;SDS011;59402;48.396;-4.472;2022-07-23T06:04:08;3.38;;;1.85;;
41709;SDS011;59402;48.396;-4.472;2022-07-23T06:06:37;4.00;;;1.90;;
41709;SDS011;59402;48.396;-4.472;2022-07-23T06:09:03;3.95;;;1.90;;
41709;SDS011;59402;48.396;-4.472;2022-07-23T06:11:28;4.53;;;2.05;;
41709;SDS011;59402;48.396;-4.472;2022-07-23T06:13:55;7.05;;;2.10;;
41709;SDS011;59402;48.396;-4.472;2022-07-23T06:16:26;5.47;;;1.80;;
41709;SDS011;59402;48.396;-4.472;2022-07-23T06:18:51;7.03;;;2.00;;
41709;SDS011;59402;48.396;-4.472;2022-07-23T06:21:18;3.27;;;2.00;;
41709;SDS011;59402;48.396;-4.472;2022-07-23T06:23:44;4.65;;;2.22;;
41709;SDS011;59402;48.396;-4.472;2022-07-23T06:26:09;3.83;;;1.90;;
41709;SDS011;59402;48.396;-4.472;2022-07-23T06:28:34;5.15;;;2.20;;
41709;SDS011;59402;48.396;-4.472;2022-07-23T06:31:00;5.32;;;2.10;;
41709;SDS011;59402;48.396;-4.472;2022-07-23T06:33:25;3.20;;;1.88;;
41709;SDS011;59402;48.396;-4.472;2022-07-23T06:35:51;4.43;;;1.88;;
41709;SDS011;59402;48.396;-4.472;2022-07-23T06:38:16;6.05;;;2.40;;
41709;SDS011;59402;48.396;-4.472;2022-07-23T06:40:42;4.97;;;1.63;;
41709;SDS011;59402;48.396;-4.472;2022-07-23T06:43:07;4.60;;;2.35;;
41709;SDS011;59402;48.396;-4.472;2022-07-23T06:45:36;7.30;;;2.53;;
41709;SDS011;59402;48.396;-4.472;2022-07-23T06:48:01;5.00;;;2.22;;
41709;SDS011;59402;48.396;-4.472;2022-07-23T06:50:28;4.18;;;1.90;;
41709;SDS011;59402;48.396;-4.472;2022-07-23T06:52:54;4.32;;;2.10;;
41709;SDS011;59402;48.396;-4.472;2022-07-23T06:55:19;4.53;;;1.85;;
41709;SDS011;59402;48.396;-4.472;2022-07-23T06:57:45;3.63;;;1.95;;
41709;SDS011;59402;48.396;-4.472;2022-07-23T07:00:10;3.67;;;1.40;;
41709;SDS011;59402;48.396;-4.472;2022-07-23T07:02:36;5.43;;;1.83;;
41709;SDS011;59402;48.396;-4.472;2022-07-23T07:05:02;7.43;;;2.40;;
41709;SDS011;59402;48.396;-4.472;2022-07-23T07:07:28;7.25;;;1.88;;
41709;SDS011;59402;48.396;-4.472;2022-07-23T07:09:53;4.03;;;1.70;;
41709;SDS011;59402;48.396;-4.472;2022-07-23T07:12:19;4.60;;;2.17;;
41709;SDS011;59402;48.396;-4.472;2022-07-23T07:14:44;3.97;;;1.90;;
41709;SDS011;59402;48.396;-4.472;2022-07-23T07:17:10;3.33;;;1.60;;
41709;SDS011;59402;48.396;-4.472;2022-07-23T07:19:38;3.38;;;1.70;;
41709;SDS011;59402;48.396;-4.472;2022-07-23T07:22:03;3.70;;;1.30;;
41709;SDS011;59402;48.396;-4.472;2022-07-23T07:24:29;4.10;;;1.77;;
41709;SDS011;59402;48.396;-4.472;2022-07-23T07:26:54;6.13;;;1.80;;
41709;SDS011;59402;48.396;-4.472;2022-07-23T07:29:20;4.55;;;1.60;;
41709;SDS011;59402;48.396;-4.472;2022-07-23T07:31:45;4.97;;;2.08;;
41709;SDS011;59402;48.396;-4.472;2022-07-23T07:34:10;4.18;;;1.60;;
41709;SDS011;59402;48.396;-4.472;2022-07-23T07:36:36;6.40;;;1.90;;
41709;SDS011;59402;48.396;-4.472;2022-07-23T07:39:03;5.07;;;1.70;;
41709;SDS011;59402;48.396;-4.472;2022-07-23T07:41:29;4.72;;;1.70;;
41709;SDS011;59402;48.396;-4.472;2022-07-23T07:43:55;5.60;;;1.80;;
41709;SDS011;59402;48.396;-4.472;2022-07-23T07:46:21;5.40;;;1.90;;
41709;SDS011;59402;48.396;-4.472;2022-07-23T07:48:49;3.90;;;1.90;;
41709;SDS011;59402;48.396;-4.472;2022-07-23T07:51:15;5.78;;;2.03;;
41709;SDS011;59402;48.396;-4.472;2022-07-23T07:53:41;7.00;;;2.30;;
41709;SDS011;59402;48.396;-4.472;2022-07-23T07:56:06;4.25;;;1.60;;
41709;SDS011;59402;48.396;-4.472;2022-07-23T07:58:32;4.47;;;1.92;;
41709;SDS011;59402;48.396;-4.472;2022-07-23T08:00:57;5.30;;;2.15;;
41709;SDS011;59402;48.396;-4.472;2022-07-23T08:03:23;5.90;;;2.03;;
41709;SDS011;59402;48.396;-4.472;2022-07-23T08:05:48;5.20;;;2.28;;
41709;SDS011;59402;48.396;-4.472;2022-07-23T08:08:14;5.97;;;1.83;;
41709;SDS011;59402;48.396;-4.472;2022-07-23T08:10:40;3.95;;;1.75;;
41709;SDS011;59402;48.396;-4.472;2022-07-23T08:13:05;6.18;;;2.08;;
41709;SDS011;59402;48.396;-4.472;2022-07-23T08:15:31;4.80;;;2.00;;
41709;SDS011;59402;48.396;-4.472;2022-07-23T08:17:57;3.20;;;1.80;;
41709;SDS011;59402;48.396;-4.472;2022-07-23T08:20:23;4.22;;;2.03;;
41709;SDS011;59402;48.396;-4.472;2022-07-23T08:25:28;4.32;;;1.70;;
41709;SDS011;59402;48.396;-4.472;2022-07-23T08:27:56;4.97;;;1.70;;
41709;SDS011;59402;48.396;-4.472;2022-07-23T08:30:22;4.05;;;1.90;;
41709;SDS011;59402;48.396;-4.472;2022-07-23T08:32:49;6.32;;;1.90;;
41709;SDS011;59402;48.396;-4.472;2022-07-23T08:35:16;5.18;;;1.95;;
41709;SDS011;59402;48.396;-4.472;2022-07-23T08:37:42;3.58;;;1.60;;
41709;SDS011;59402;48.396;-4.472;2022-07-23T08:40:08;3.55;;;1.90;;
41709;SDS011;59402;48.396;-4.472;2022-07-23T08:42:34;3.13;;;1.42;;
41709;SDS011;59402;48.396;-4.472;2022-07-23T08:45:00;4.05;;;1.73;;
41709;SDS011;59402;48.396;-4.472;2022-07-23T08:47:27;3.92;;;1.70;;
41709;SDS011;59402;48.396;-4.472;2022-07-23T08:49:54;4.10;;;2.10;;
41709;SDS011;59402;48.396;-4.472;2022-07-23T08:52:21;4.47;;;1.40;;
41709;SDS011;59402;48.396;-4.472;2022-07-23T08:54:47;4.35;;;1.40;;
41709;SDS011;59402;48.396;-4.472;2022-07-23T08:57:13;4.93;;;1.38;;
41709;SDS011;59402;48.396;-4.472;2022-07-23T08:59:39;5.10;;;1.60;;
41709;SDS011;59402;48.396;-4.472;2022-07-23T09:02:05;5.57;;;1.85;;
41709;SDS011;59402;48.396;-4.472;2022-07-23T09:04:31;6.85;;;1.90;;
41709;SDS011;59402;48.396;-4.472;2022-07-23T09:06:58;5.90;;;1.73;;
41709;SDS011;59402;48.396;-4.472;2022-07-23T09:09:24;3.72;;;1.67;;
41709;SDS011;59402;48.396;-4.472;2022-07-23T09:12:08;4.88;;;2.08;;
41709;SDS011;59402;48.396;-4.472;2022-07-23T09:14:36;6.00;;;1.50;;
41709;SDS011;59402;48.396;-4.472;2022-07-23T09:17:09;3.47;;;1.70;;
41709;SDS011;59402;48.396;-4.472;2022-07-23T09:19:39;4.20;;;1.50;;
41709;SDS011;59402;48.396;-4.472;2022-07-23T09:27:50;4.05;;;1.48;;
41709;SDS011;59402;48.396;-4.472;2022-07-23T09:30:26;3.05;;;1.63;;
41709;SDS011;59402;48.396;-4.472;2022-07-23T09:33:05;3.33;;;1.52;;
41709;SDS011;59402;48.396;-4.472;2022-07-23T09:38:13;4.70;;;1.52;;
41709;SDS011;59402;48.396;-4.472;2022-07-23T09:40:39;6.45;;;1.40;;
41709;SDS011;59402;48.396;-4.472;2022-07-23T09:43:05;4.45;;;1.45;;
41709;SDS011;59402;48.396;-4.472;2022-07-23T09:45:31;4.72;;;1.40;;
41709;SDS011;59402;48.396;-4.472;2022-07-23T09:48:12;2.63;;;1.20;;
41709;SDS011;59402;48.396;-4.472;2022-07-23T09:50:39;5.22;;;1.52;;
41709;SDS011;59402;48.396;-4.472;2022-07-23T09:53:08;4.43;;;1.40;;
41709;SDS011;59402;48.396;-4.472;2022-07-23T09:55:35;6.10;;;1.30;;
41709;SDS011;59402;48.396;-4.472;2022-07-23T09:58:03;3.35;;;1.30;;
41709;SDS011;59402;48.396;-4.472;2022-07-23T10:00:30;3.72;;;1.40;;
41709;SDS011;59402;48.396;-4.472;2022-07-23T10:02:57;3.15;;;1.25;;
41709;SDS011;59402;48.396;-4.472;2022-07-23T10:05:26;4.28;;;1.20;;
41709;SDS011;59402;48.396;-4.472;2022-07-23T10:08:12;2.97;;;1.23;;
41709;SDS011;59402;48.396;-4.472;2022-07-23T10:10:56;2.38;;;1.25;;
41709;SDS011;59402;48.396;-4.472;2022-07-23T10:13:23;4.18;;;1.52;;
41709;SDS011;59402;48.396;-4.472;2022-07-23T10:16:09;4.80;;;1.60;;
41709;SDS011;59402;48.396;-4.472;2022-07-23T10:18:34;2.58;;;1.27;;
41709;SDS011;59402;48.396;-4.472;2022-07-23T10:21:00;3.70;;;1.30;;
41709;SDS011;59402;48.396;-4.472;2022-07-23T10:26:22;4.47;;;1.20;;
41709;SDS011;59402;48.396;-4.472;2022-07-23T10:31:56;4.43;;;1.20;;
41709;SDS011;59402;48.396;-4.472;2022-07-23T10:37:53;3.60;;;1.20;;
41709;SDS011;59402;48.396;-4.472;2022-07-23T10:40:08;2.05;;;1.23;;
41709;SDS011;59402;48.396;-4.472;2022-07-23T10:42:42;3.25;;;1.17;;
41709;SDS011;59402;48.396;-4.472;2022-07-23T10:45:29;4.57;;;1.17;;
41709;SDS011;59402;48.396;-4.472;2022-07-23T10:50:42;6.22;;;2.00;;
41709;SDS011;59402;48.396;-4.472;2022-07-23T10:53:10;3.67;;;1.10;;
41709;SDS011;59402;48.396;-4.472;2022-07-23T10:58:10;4.07;;;1.50;;
41709;SDS011;59402;48.396;-4.472;2022-07-23T11:00:36;5.20;;;1.42;;
41709;SDS011;59402;48.396;-4.472;2022-07-23T11:03:04;4.68;;;1.35;;
41709;SDS011;59402;48.396;-4.472;2022-07-23T11:05:49;2.17;;;1.00;;
41709;SDS011;59402;48.396;-4.472;2022-07-23T11:08:18;2.78;;;1.20;;
41709;SDS011;59402;48.396;-4.472;2022-07-23T11:24:08;3.65;;;1.20;;
41709;SDS011;59402;48.396;-4.472;2022-07-23T11:32:06;3.30;;;1.00;;
41709;SDS011;59402;48.396;-4.472;2022-07-23T11:34:52;3.72;;;1.55;;
41709;SDS011;59402;48.396;-4.472;2022-07-23T11:37:40;3.28;;;1.80;;
41709;SDS011;59402;48.396;-4.472;2022-07-23T11:40:10;3.45;;;1.42;;
41709;SDS011;59402;48.396;-4.472;2022-07-23T11:42:51;3.35;;;1.23;;
41709;SDS011;59402;48.396;-4.472;2022-07-23T11:45:22;4.32;;;1.90;;
41709;SDS011;59402;48.396;-4.472;2022-07-23T11:47:48;3.40;;;1.50;;
41709;SDS011;59402;48.396;-4.472;2022-07-23T11:50:14;2.95;;;1.00;;
41709;SDS011;59402;48.396;-4.472;2022-07-23T11:52:40;2.50;;;1.30;;
41709;SDS011;59402;48.396;-4.472;2022-07-23T11:55:06;3.30;;;1.40;;
41709;SDS011;59402;48.396;-4.472;2022-07-23T11:57:35;4.78;;;1.17;;
41709;SDS011;59402;48.396;-4.472;2022-07-23T12:00:05;4.00;;;1.05;;
41709;SDS011;59402;48.396;-4.472;2022-07-23T12:02:39;4.07;;;1.42;;
41709;SDS011;59402;48.396;-4.472;2022-07-23T12:05:06;3.30;;;1.35;;
41709;SDS011;59402;48.396;-4.472;2022-07-23T12:07:38;4.38;;;1.27;;
41709;SDS011;59402;48.396;-4.472;2022-07-23T12:12:47;2.22;;;1.20;;
41709;SDS011;59402;48.396;-4.472;2022-07-23T12:15:25;3.10;;;1.42;;
41709;SDS011;59402;48.396;-4.472;2022-07-23T12:17:52;2.88;;;1.10;;
41709;SDS011;59402;48.396;-4.472;2022-07-23T12:20:26;3.00;;;1.27;;
41709;SDS011;59402;48.396;-4.472;2022-07-23T12:22:56;3.20;;;1.17;;
41709;SDS011;59402;48.396;-4.472;2022-07-23T12:25:24;2.58;;;1.02;;
41709;SDS011;59402;48.396;-4.472;2022-07-23T12:27:58;3.97;;;1.60;;
41709;SDS011;59402;48.396;-4.472;2022-07-23T12:30:45;2.78;;;1.02;;
41709;SDS011;59402;48.396;-4.472;2022-07-23T12:33:13;6.00;;;1.10;;
41709;SDS011;59402;48.396;-4.472;2022-07-23T12:35:46;3.28;;;1.17;;
41709;SDS011;59402;48.396;-4.472;2022-07-23T12:38:19;2.78;;;1.30;;
41709;SDS011;59402;48.396;-4.472;2022-07-23T12:40:48;3.20;;;1.05;;
41709;SDS011;59402;48.396;-4.472;2022-07-23T12:43:29;3.53;;;1.40;;
41709;SDS011;59402;48.396;-4.472;2022-07-23T12:48:39;5.38;;;1.80;;
41709;SDS011;59402;48.396;-4.472;2022-07-23T12:51:15;4.38;;;1.02;;
41709;SDS011;59402;48.396;-4.472;2022-07-23T12:53:43;3.03;;;1.10;;
41709;SDS011;59402;48.396;-4.472;2022-07-23T12:56:11;3.22;;;1.10;;
41709;SDS011;59402;48.396;-4.472;2022-07-23T12:58:46;3.10;;;1.10;;
41709;SDS011;59402;48.396;-4.472;2022-07-23T13:06:25;2.97;;;1.15;;
41709;SDS011;59402;48.396;-4.472;2022-07-23T13:08:55;3.38;;;1.45;;
41709;SDS011;59402;48.396;-4.472;2022-07-23T13:11:21;3.17;;;1.25;;
41709;SDS011;59402;48.396;-4.472;2022-07-23T13:13:46;2.45;;;1.20;;
41709;SDS011;59402;48.396;-4.472;2022-07-23T13:16:12;2.75;;;1.10;;
41709;SDS011;59402;48.396;-4.472;2022-07-23T13:18:37;4.03;;;1.05;;
41709;SDS011;59402;48.396;-4.472;2022-07-23T13:21:03;4.28;;;1.17;;
41709;SDS011;59402;48.396;-4.472;2022-07-23T13:23:28;4.65;;;1.40;;
41709;SDS011;59402;48.396;-4.472;2022-07-23T13:25:54;3.03;;;1.10;;
41709;SDS011;59402;48.396;-4.472;2022-07-23T13:28:20;3.03;;;0.98;;
41709;SDS011;59402;48.396;-4.472;2022-07-23T13:30:48;3.63;;;1.23;;
41709;SDS011;59402;48.396;-4.472;2022-07-23T13:33:18;2.92;;;1.25;;
41709;SDS011;59402;48.396;-4.472;2022-07-23T13:35:46;3.15;;;1.00;;
41709;SDS011;59402;48.396;-4.472;2022-07-23T13:38:12;2.13;;;0.95;;
41709;SDS011;59402;48.396;-4.472;2022-07-23T13:40:39;2.50;;;1.00;;
41709;SDS011;59402;48.396;-4.472;2022-07-23T13:43:08;2.10;;;0.77;;
41709;SDS011;59402;48.396;-4.472;2022-07-23T13:45:38;4.47;;;1.23;;
41709;SDS011;59402;48.396;-4.472;2022-07-23T13:48:04;2.63;;;0.88;;
41709;SDS011;59402;48.396;-4.472;2022-07-23T13:50:31;4.05;;;0.93;;
41709;SDS011;59402;48.396;-4.472;2022-07-23T13:52:56;3.45;;;1.02;;
41709;SDS011;59402;48.396;-4.472;2022-07-23T13:55:22;1.90;;;1.00;;
41709;SDS011;59402;48.396;-4.472;2022-07-23T13:57:47;2.53;;;1.17;;
41709;SDS011;59402;48.396;-4.472;2022-07-23T14:00:13;3.05;;;1.23;;
41709;SDS011;59402;48.396;-4.472;2022-07-23T14:02:40;3.03;;;1.15;;
41709;SDS011;59402;48.396;-4.472;2022-07-23T14:05:06;2.10;;;0.90;;
41709;SDS011;59402;48.396;-4.472;2022-07-23T14:07:33;2.78;;;1.10;;
41709;SDS011;59402;48.396;-4.472;2022-07-23T14:10:00;2.63;;;1.10;;
41709;SDS011;59402;48.396;-4.472;2022-07-23T14:12:26;2.63;;;1.10;;
41709;SDS011;59402;48.396;-4.472;2022-07-23T14:14:52;2.25;;;0.85;;
41709;SDS011;59402;48.396;-4.472;2022-07-23T14:17:17;2.40;;;1.02;;
41709;SDS011;59402;48.396;-4.472;2022-07-23T14:19:43;3.10;;;1.00;;
41709;SDS011;59402;48.396;-4.472;2022-07-23T14:22:08;2.80;;;0.98;;
41709;SDS011;59402;48.396;-4.472;2022-07-23T14:24:34;2.00;;;0.90;;
41709;SDS011;59402;48.396;-4.472;2022-07-23T14:27:00;2.40;;;0.93;;
41709;SDS011;59402;48.396;-4.472;2022-07-23T14:29:26;2.00;;;0.80;;
41709;SDS011;59402;48.396;-4.472;2022-07-23T14:31:52;2.72;;;1.20;;
41709;SDS011;59402;48.396;-4.472;2022-07-23T14:34:18;2.55;;;1.10;;
41709;SDS011;59402;48.396;-4.472;2022-07-23T14:36:43;2.85;;;0.90;;
41709;SDS011;59402;48.396;-4.472;2022-07-23T14:39:09;1.67;;;0.82;;
41709;SDS011;59402;48.396;-4.472;2022-07-23T14:41:35;2.55;;;1.00;;
41709;SDS011;59402;48.396;-4.472;2022-07-23T14:44:01;2.58;;;0.90;;
41709;SDS011;59402;48.396;-4.472;2022-07-23T14:46:27;3.10;;;0.90;;
41709;SDS011;59402;48.396;-4.472;2022-07-23T14:48:52;1.60;;;0.98;;
41709;SDS011;59402;48.396;-4.472;2022-07-23T14:51:18;4.05;;;0.90;;
41709;SDS011;59402;48.396;-4.472;2022-07-23T14:53:43;1.67;;;0.70;;
41709;SDS011;59402;48.396;-4.472;2022-07-23T14:56:09;2.72;;;0.93;;
41709;SDS011;59402;48.396;-4.472;2022-07-23T14:58:34;3.60;;;1.00;;
41709;SDS011;59402;48.396;-4.472;2022-07-23T15:01:00;3.58;;;1.30;;
41709;SDS011;59402;48.396;-4.472;2022-07-23T15:03:25;4.55;;;1.45;;
41709;SDS011;59402;48.396;-4.472;2022-07-23T15:05:51;2.30;;;1.00;;
41709;SDS011;59402;48.396;-4.472;2022-07-23T15:08:17;3.33;;;1.15;;
41709;SDS011;59402;48.396;-4.472;2022-07-23T15:10:42;3.10;;;1.08;;
41709;SDS011;59402;48.396;-4.472;2022-07-23T15:13:08;3.05;;;1.30;;
41709;SDS011;59402;48.396;-4.472;2022-07-23T15:15:33;3.45;;;1.73;;
41709;SDS011;59402;48.396;-4.472;2022-07-23T15:17:59;1.92;;;1.10;;
41709;SDS011;59402;48.396;-4.472;2022-07-23T15:20:24;3.55;;;1.42;;
41709;SDS011;59402;48.396;-4.472;2022-07-23T15:22:50;2.22;;;1.30;;
41709;SDS011;59402;48.396;-4.472;2022-07-23T15:25:15;5.50;;;1.45;;
41709;SDS011;59402;48.396;-4.472;2022-07-23T15:27:41;4.40;;;1.20;;